createdAt,value
2022-08-11T00:00:12.494Z,2.60
2022-08-11T00:01:46.941Z,3.40
2022-08-11T00:03:20.144Z,3.50
2022-08-11T00:04:53.360Z,2.75
2022-08-11T00:06:35.263Z,3.10
2022-08-11T00:08:07.063Z,3.22
2022-08-11T00:09:40.671Z,2.67
2022-08-11T00:11:13.360Z,2.80
2022-08-11T00:13:02.312Z,3.22
2022-08-11T00:14:37.600Z,2.90
2022-08-11T00:16:18.628Z,2.70
2022-08-11T00:17:58.174Z,2.90
2022-08-11T00:20:15.462Z,2.45
2022-08-11T00:21:59.702Z,3.10
2022-08-11T00:23:20.474Z,3.10
2022-08-11T00:24:57.240Z,2.45
2022-08-11T00:26:33.033Z,2.85
2022-08-11T00:28:04.982Z,2.58
2022-08-11T00:29:36.703Z,2.47
2022-08-11T00:31:28.170Z,2.58
2022-08-11T00:33:00.070Z,3.25
2022-08-11T00:34:37.284Z,2.88
2022-08-11T00:36:12.895Z,2.50
2022-08-11T00:37:50.371Z,2.85
2022-08-11T00:39:28.522Z,2.60
2022-08-11T00:41:39.357Z,2.47
2022-08-11T00:43:25.505Z,2.47
2022-08-11T00:45:22.310Z,2.63
2022-08-11T00:47:13.611Z,2.60
2022-08-11T00:49:27.311Z,2.85
2022-08-11T00:51:17.361Z,2.78
2022-08-11T00:53:13.736Z,2.70
2022-08-11T00:55:00.038Z,2.80
2022-08-11T00:57:03.831Z,2.70
2022-08-11T00:59:35.741Z,2.42
2022-08-11T01:01:16.513Z,2.78
2022-08-11T01:03:32.572Z,2.92
2022-08-11T01:05:37.913Z,3.20
2022-08-11T01:08:00.622Z,3.00
2022-08-11T01:09:52.535Z,2.63
2022-08-11T01:12:01.618Z,2.60
2022-08-11T01:14:03.461Z,3.00
2022-08-11T01:15:38.070Z,2.85
2022-08-11T01:17:29.353Z,2.95
2022-08-11T01:19:26.616Z,3.50
2022-08-11T01:21:16.974Z,2.65
2022-08-11T01:22:59.474Z,3.00
2022-08-11T01:25:21.603Z,2.75
2022-08-11T01:29:15.107Z,2.85
2022-08-11T01:31:26.443Z,2.78
2022-08-11T01:33:25.988Z,3.00
2022-08-11T01:35:12.801Z,3.08
2022-08-11T01:37:16.796Z,3.17
2022-08-11T01:39:07.194Z,3.00
2022-08-11T01:40:56.794Z,3.40
2022-08-11T01:43:16.865Z,2.90
2022-08-11T01:45:06.938Z,3.05
2022-08-11T01:46:44.662Z,3.13
2022-08-11T01:48:55.845Z,2.60
2022-08-11T01:50:42.598Z,2.92
2022-08-11T01:52:39.993Z,2.95
2022-08-11T01:54:25.356Z,2.35
2022-08-11T01:56:19.022Z,2.90
2022-08-11T01:58:03.206Z,2.50
2022-08-11T01:59:48.702Z,2.40
2022-08-11T02:01:20.305Z,2.88
2022-08-11T02:03:01.027Z,3.28
2022-08-11T02:04:59.328Z,2.50
2022-08-11T02:07:02.689Z,2.72
2022-08-11T02:08:48.945Z,2.80
2022-08-11T02:10:50.473Z,3.08
2022-08-11T02:12:33.974Z,3.20
2022-08-11T02:14:29.404Z,3.05
2022-08-11T02:16:21.675Z,2.72
2022-08-11T02:18:04.829Z,2.80
2022-08-11T02:20:01.085Z,2.65
2022-08-11T02:22:47.122Z,2.60
2022-08-11T02:24:26.942Z,2.72
2022-08-11T02:26:05.379Z,2.67
2022-08-11T02:27:55.392Z,2.60
2022-08-11T02:29:59.822Z,2.65
2022-08-11T02:32:28.480Z,2.92
2022-08-11T02:33:57.255Z,2.30
2022-08-11T02:35:42.601Z,2.25
2022-08-11T02:37:23.586Z,2.50
2022-08-11T02:39:14.586Z,2.33
2022-08-11T02:41:00.171Z,2.40
2022-08-11T02:42:42.231Z,2.60
2022-08-11T02:44:35.572Z,2.65
2022-08-11T02:46:21.859Z,2.45
2022-08-11T02:48:34.955Z,2.90
2022-08-11T02:50:20.947Z,2.60
2022-08-11T02:52:05.141Z,2.63
2022-08-11T02:53:56.201Z,2.70
2022-08-11T02:55:50.930Z,2.70
2022-08-11T02:57:37.414Z,2.80
2022-08-11T02:59:42.309Z,2.65
2022-08-11T03:01:28.170Z,2.70
2022-08-11T03:03:18.660Z,2.50
2022-08-11T03:05:03.017Z,2.92
2022-08-11T03:06:49.485Z,3.30
2022-08-11T03:08:36.415Z,3.20
2022-08-11T03:10:25.446Z,2.97
2022-08-11T03:12:34.542Z,3.03
2022-08-11T03:14:54.611Z,2.45
2022-08-11T03:16:45.743Z,2.95
2022-08-11T03:18:28.722Z,3.00
2022-08-11T03:20:15.274Z,3.15
2022-08-11T03:22:08.357Z,2.95
2022-08-11T03:24:05.037Z,2.67
2022-08-11T03:26:01.686Z,3.17
2022-08-11T03:28:14.953Z,2.88
2022-08-11T03:29:54.458Z,2.95
2022-08-11T03:31:35.662Z,2.90
2022-08-11T03:33:49.525Z,2.83
2022-08-11T03:35:21.790Z,2.50
2022-08-11T03:37:17.348Z,2.97
2022-08-11T03:39:08.019Z,2.50
2022-08-11T03:42:02.394Z,2.67
2022-08-11T03:44:16.188Z,2.90
2022-08-11T03:46:22.707Z,2.80
2022-08-11T03:48:30.194Z,2.70
2022-08-11T03:50:30.258Z,2.65
2022-08-11T03:52:32.565Z,2.78
2022-08-11T03:54:16.155Z,2.63
2022-08-11T03:56:13.126Z,2.47
2022-08-11T03:57:59.651Z,2.80
2022-08-11T03:59:51.265Z,2.95
2022-08-11T04:03:46.881Z,2.80
2022-08-11T04:05:56.121Z,2.80
2022-08-11T04:08:00.381Z,2.75
2022-08-11T04:09:56.729Z,2.78
2022-08-11T04:11:49.706Z,2.42
2022-08-11T04:13:50.046Z,2.30
2022-08-11T04:15:58.831Z,2.58
2022-08-11T04:17:54.020Z,2.60
2022-08-11T04:19:49.739Z,2.75
2022-08-11T04:21:46.658Z,3.20
2022-08-11T04:24:35.555Z,2.72
2022-08-11T04:26:03.186Z,3.10
2022-08-11T04:28:29.299Z,2.90
2022-08-11T04:30:40.669Z,2.92
2022-08-11T04:32:31.681Z,3.10
2022-08-11T04:34:27.474Z,2.80
2022-08-11T04:36:09.638Z,2.90
2022-08-11T04:37:43.903Z,2.88
2022-08-11T04:39:53.539Z,3.40
2022-08-11T04:42:31.021Z,3.75
2022-08-11T04:44:45.389Z,2.95
2022-08-11T04:46:38.803Z,2.92
2022-08-11T04:48:35.232Z,3.30
2022-08-11T04:50:41.709Z,3.00
2022-08-11T04:53:25.000Z,2.90
2022-08-11T04:55:30.499Z,3.08
2022-08-11T04:57:36.226Z,3.05
2022-08-11T05:00:17.937Z,2.83
2022-08-11T05:02:17.933Z,3.00
2022-08-11T05:04:33.843Z,2.80
2022-08-11T05:06:29.943Z,2.65
2022-08-11T05:08:41.929Z,3.00
2022-08-11T05:12:20.144Z,2.70
2022-08-11T05:14:20.256Z,2.92
2022-08-11T05:16:16.258Z,2.70
2022-08-11T05:18:32.243Z,2.97
2022-08-11T05:20:27.868Z,2.80
2022-08-11T05:22:18.762Z,2.83
2022-08-11T05:24:16.337Z,3.00
2022-08-11T05:26:46.056Z,2.80
2022-08-11T05:28:30.455Z,2.63
2022-08-11T05:30:30.679Z,2.97
2022-08-11T05:32:26.734Z,2.58
2022-08-11T05:34:28.067Z,2.53
2022-08-11T05:36:12.538Z,2.70
2022-08-11T05:38:04.664Z,2.55
2022-08-11T05:40:07.608Z,2.60
2022-08-11T05:41:59.848Z,2.67
2022-08-11T05:44:20.446Z,2.97
2022-08-11T05:46:06.236Z,3.20
2022-08-11T05:47:59.822Z,3.00
2022-08-11T05:49:51.400Z,3.35
2022-08-11T05:51:54.926Z,3.70
2022-08-11T05:53:47.039Z,3.95
2022-08-11T05:55:54.625Z,4.35
2022-08-11T05:57:48.874Z,4.60
2022-08-11T05:59:25.366Z,4.75
2022-08-11T06:00:57.169Z,5.00
2022-08-11T06:02:29.814Z,5.45
2022-08-11T06:04:16.610Z,5.45
2022-08-11T06:05:48.434Z,5.82
2022-08-11T06:07:29.805Z,5.75
2022-08-11T06:09:33.645Z,5.30
2022-08-11T06:11:06.097Z,5.57
2022-08-11T06:12:40.798Z,5.60
2022-08-11T06:14:15.592Z,6.20
2022-08-11T06:15:49.783Z,6.45
2022-08-11T06:17:26.710Z,7.03
2022-08-11T06:19:11.255Z,12.05
2022-08-11T06:20:50.631Z,22.75
2022-08-11T06:22:23.017Z,15.45
2022-08-11T06:23:56.041Z,15.88
2022-08-11T06:25:32.668Z,15.02
2022-08-11T06:27:12.754Z,12.52
2022-08-11T06:28:47.054Z,17.08
2022-08-11T06:30:19.409Z,24.88
2022-08-11T06:31:58.164Z,24.40
2022-08-11T06:33:33.691Z,24.90
2022-08-11T06:35:22.165Z,22.25
2022-08-11T06:37:18.552Z,20.88
2022-08-11T06:38:58.934Z,19.85
2022-08-11T06:41:18.160Z,17.20
2022-08-11T06:43:06.793Z,15.57
2022-08-11T06:44:58.339Z,15.77
2022-08-11T06:46:38.080Z,14.55
2022-08-11T06:48:17.456Z,16.60
2022-08-11T06:50:08.679Z,15.90
2022-08-11T06:51:41.777Z,16.00
2022-08-11T06:53:17.607Z,14.15
2022-08-11T06:54:57.262Z,14.88
2022-08-11T06:57:06.390Z,13.98
2022-08-11T06:59:01.140Z,12.55
2022-08-11T07:00:35.289Z,62.85
2022-08-11T07:02:18.429Z,70.72
2022-08-11T07:04:01.554Z,68.72
2022-08-11T07:05:45.126Z,83.60
2022-08-11T07:08:34.623Z,118.25
2022-08-11T07:10:41.314Z,69.57
2022-08-11T07:12:37.558Z,125.45
2022-08-11T07:14:31.916Z,85.28
2022-08-11T07:16:12.734Z,68.60
2022-08-11T07:18:11.551Z,79.38
2022-08-11T07:20:10.215Z,144.55
2022-08-11T07:22:03.977Z,81.03
2022-08-11T07:23:56.175Z,101.47
2022-08-11T07:25:48.378Z,90.13
2022-08-11T07:27:41.095Z,76.88
2022-08-11T07:29:14.484Z,87.88
2022-08-11T07:30:47.571Z,116.85
2022-08-11T07:32:33.565Z,78.70
2022-08-11T07:34:28.117Z,82.93
2022-08-11T07:36:03.344Z,120.85
2022-08-11T07:37:36.215Z,74.95
2022-08-11T07:39:15.283Z,78.75
2022-08-11T07:40:47.413Z,77.43
2022-08-11T07:42:23.776Z,73.63
2022-08-11T07:44:09.275Z,69.32
2022-08-11T07:46:04.502Z,68.70
2022-08-11T07:47:56.049Z,64.10
2022-08-11T07:49:50.350Z,65.07
2022-08-11T07:51:41.101Z,68.00
2022-08-11T07:53:15.133Z,61.28
2022-08-11T07:54:51.176Z,61.15
2022-08-11T07:56:33.131Z,56.97
2022-08-11T07:58:44.031Z,58.67
2022-08-11T08:00:36.954Z,56.33
2022-08-11T08:02:30.472Z,52.13
2022-08-11T08:04:21.082Z,53.15
2022-08-11T08:06:22.248Z,58.50
2022-08-11T08:08:23.437Z,46.30
2022-08-11T08:10:14.030Z,48.13
2022-08-11T08:12:07.231Z,45.97
2022-08-11T08:13:57.881Z,55.58
2022-08-11T08:15:49.263Z,46.47
2022-08-11T08:17:41.599Z,60.53
2022-08-11T08:19:16.139Z,46.95
2022-08-11T08:20:52.459Z,45.00
2022-08-11T08:22:37.789Z,46.72
2022-08-11T08:24:11.406Z,43.38
2022-08-11T08:25:44.890Z,45.22
2022-08-11T08:27:17.844Z,46.15
2022-08-11T08:28:49.882Z,48.85
2022-08-11T08:30:40.464Z,51.83
2022-08-11T08:32:13.146Z,47.08
2022-08-11T08:33:45.201Z,52.45
2022-08-11T08:35:17.663Z,47.35
2022-08-11T08:36:51.482Z,48.42
2022-08-11T08:38:24.236Z,69.30
2022-08-11T08:39:56.444Z,47.83
2022-08-11T08:41:30.036Z,45.60
2022-08-11T08:43:11.095Z,52.05
2022-08-11T08:44:47.168Z,46.17
2022-08-11T08:46:25.545Z,50.45
2022-08-11T08:48:01.818Z,104.35
2022-08-11T08:49:40.455Z,47.42
2022-08-11T08:51:54.590Z,50.72
2022-08-11T08:53:31.965Z,51.53
2022-08-11T08:55:06.689Z,68.53
2022-08-11T08:56:42.862Z,70.47
2022-08-11T08:58:16.287Z,69.40
2022-08-11T08:59:51.443Z,91.38
2022-08-11T09:01:25.408Z,52.90
2022-08-11T09:02:58.138Z,55.17
2022-08-11T09:04:30.891Z,91.05
2022-08-11T09:06:02.677Z,102.03
2022-08-11T09:07:39.106Z,49.00
2022-08-11T09:09:12.838Z,60.75
2022-08-11T09:10:48.099Z,56.38
2022-08-11T09:12:38.237Z,63.70
2022-08-11T09:14:14.914Z,71.22
2022-08-11T09:15:46.883Z,57.95
2022-08-11T09:17:20.093Z,75.53
2022-08-11T09:18:53.342Z,75.68
2022-08-11T09:20:29.281Z,179.32
2022-08-11T09:22:19.839Z,63.88
2022-08-11T09:24:17.030Z,87.72
2022-08-11T09:26:19.594Z,77.90
2022-08-11T09:27:53.306Z,67.18
2022-08-11T09:29:27.709Z,76.32
2022-08-11T09:31:01.665Z,75.75
2022-08-11T09:32:34.345Z,70.13
2022-08-11T09:34:06.101Z,73.47
2022-08-11T09:35:39.103Z,74.03
2022-08-11T09:37:55.741Z,72.03
2022-08-11T09:39:40.514Z,105.28
2022-08-11T09:41:13.547Z,70.55
2022-08-11T09:43:10.194Z,130.65
2022-08-11T09:44:49.204Z,87.00
2022-08-11T09:46:27.766Z,120.38
2022-08-11T09:48:00.080Z,108.28
2022-08-11T09:49:32.771Z,132.70
2022-08-11T09:51:05.892Z,112.10
2022-08-11T09:52:57.184Z,127.00
2022-08-11T09:54:33.016Z,106.60
2022-08-11T09:56:25.858Z,549.00
2022-08-11T09:58:42.510Z,440.08
2022-08-11T10:00:13.142Z,557.23
2022-08-11T10:01:52.298Z,469.85
2022-08-11T10:03:26.455Z,416.88
2022-08-11T10:05:18.739Z,441.95
2022-08-11T10:07:04.429Z,406.30
2022-08-11T10:08:40.664Z,429.70
2022-08-11T10:10:12.554Z,443.33
2022-08-11T10:11:45.062Z,502.33
2022-08-11T10:14:31.723Z,572.83
2022-08-11T10:15:38.397Z,466.73
2022-08-11T10:17:11.037Z,482.25
2022-08-11T10:18:52.849Z,525.70
2022-08-11T10:20:25.885Z,462.30
2022-08-11T10:22:16.919Z,470.45
2022-08-11T10:24:07.598Z,463.70
2022-08-11T10:25:58.232Z,494.30
2022-08-11T10:28:29.042Z,402.45
2022-08-11T10:29:50.038Z,509.13
2022-08-11T10:31:57.133Z,436.87
2022-08-11T10:33:59.558Z,427.92
2022-08-11T10:35:32.714Z,442.27
2022-08-11T10:37:05.435Z,412.67
2022-08-11T10:38:37.374Z,444.48
2022-08-11T10:40:11.090Z,481.45
2022-08-11T10:42:10.768Z,401.80
2022-08-11T10:44:02.999Z,482.52
2022-08-11T10:45:58.801Z,459.10
2022-08-11T10:47:36.990Z,522.75
2022-08-11T10:49:09.674Z,489.63
2022-08-11T10:51:04.159Z,531.97
2022-08-11T10:52:56.136Z,507.13
2022-08-11T10:54:46.515Z,524.67
2022-08-11T10:56:38.327Z,469.92
2022-08-11T10:58:29.722Z,493.35
2022-08-11T11:00:02.026Z,477.63
2022-08-11T11:01:36.539Z,480.17
2022-08-11T11:03:23.307Z,482.38
2022-08-11T11:05:09.212Z,483.17
2022-08-11T11:06:46.582Z,520.15
2022-08-11T11:08:40.794Z,577.40
2022-08-11T11:10:12.583Z,502.23
2022-08-11T11:12:08.084Z,514.42
2022-08-11T11:13:58.991Z,502.65
2022-08-11T11:15:52.991Z,481.35
2022-08-11T11:17:49.223Z,510.20
2022-08-11T11:19:25.082Z,556.38
2022-08-11T11:21:10.409Z,512.55
2022-08-11T11:22:48.033Z,522.08
2022-08-11T11:24:44.159Z,510.17
2022-08-11T11:26:38.393Z,653.50
2022-08-11T11:28:34.610Z,524.28
2022-08-11T11:30:08.670Z,525.08
2022-08-11T11:32:11.675Z,488.48
2022-08-11T11:34:20.850Z,497.63
2022-08-11T11:36:14.170Z,473.67
2022-08-11T11:38:04.156Z,463.63
2022-08-11T11:41:27.787Z,583.00
2022-08-11T11:43:00.276Z,565.33
2022-08-11T11:44:32.841Z,547.47
2022-08-11T11:46:06.477Z,482.15
2022-08-11T11:47:39.223Z,568.50
2022-08-11T11:49:15.907Z,506.10
2022-08-11T11:50:49.356Z,498.35
2022-08-11T11:52:22.526Z,497.40
2022-08-11T11:53:55.045Z,503.23
2022-08-11T11:55:28.119Z,517.65
2022-08-11T11:57:21.099Z,478.95
2022-08-11T11:59:11.552Z,478.75
2022-08-11T12:01:06.693Z,608.58
2022-08-11T12:02:40.773Z,514.90
2022-08-11T12:04:15.280Z,465.38
2022-08-11T12:05:47.791Z,491.27
2022-08-11T12:07:39.013Z,515.72
2022-08-11T12:09:14.726Z,475.65
2022-08-11T12:11:11.334Z,508.13
2022-08-11T12:13:02.566Z,476.10
2022-08-11T12:14:36.349Z,486.52
2022-08-11T12:16:34.896Z,504.45
2022-08-11T12:18:02.599Z,514.22
2022-08-11T12:19:35.452Z,479.92
2022-08-11T12:21:10.040Z,457.63
2022-08-11T12:23:00.279Z,478.77
2022-08-11T12:24:52.585Z,464.08
2022-08-11T12:26:44.160Z,452.45
2022-08-11T12:28:36.374Z,516.30
2022-08-11T12:30:09.430Z,479.85
2022-08-11T12:31:42.971Z,535.35
2022-08-11T12:33:15.196Z,517.40
2022-08-11T12:34:57.215Z,486.73
2022-08-11T12:36:33.603Z,492.35
2022-08-11T12:38:10.803Z,466.42
2022-08-11T12:40:16.527Z,512.05
2022-08-11T12:42:18.048Z,571.60
2022-08-11T12:44:10.601Z,480.25
2022-08-11T12:45:43.227Z,547.03
2022-08-11T12:47:20.731Z,470.50
2022-08-11T12:49:16.568Z,451.33
2022-08-11T12:51:12.558Z,436.48
2022-08-11T12:52:50.867Z,508.92
2022-08-11T12:54:31.156Z,452.23
2022-08-11T12:56:24.651Z,509.92
2022-08-11T12:58:15.013Z,432.80
2022-08-11T13:00:06.275Z,424.38
2022-08-11T13:01:56.625Z,457.88
2022-08-11T13:03:52.053Z,555.70
2022-08-11T13:05:28.729Z,579.72
2022-08-11T13:07:03.195Z,462.42
2022-08-11T13:08:37.844Z,501.95
2022-08-11T13:10:16.833Z,155.57
2022-08-11T13:12:08.034Z,132.85
2022-08-11T13:13:54.907Z,137.57
2022-08-11T13:15:28.844Z,158.10
2022-08-11T13:17:19.417Z,127.25
2022-08-11T13:18:53.319Z,129.15
2022-08-11T13:20:26.819Z,172.70
2022-08-11T13:21:59.091Z,544.25
2022-08-11T13:23:31.425Z,598.78
2022-08-11T13:25:04.352Z,594.97
2022-08-11T13:26:48.552Z,579.40
2022-08-11T13:28:22.807Z,484.75
2022-08-11T13:30:15.009Z,545.53
2022-08-11T13:31:48.017Z,501.35
2022-08-11T13:33:20.466Z,499.35
2022-08-11T13:34:52.427Z,525.92
2022-08-11T13:36:28.436Z,606.72
2022-08-11T13:38:18.625Z,510.70
2022-08-11T13:39:52.143Z,524.20
2022-08-11T13:41:44.097Z,546.40
2022-08-11T13:43:17.150Z,574.28
2022-08-11T13:44:49.470Z,583.88
2022-08-11T13:46:24.330Z,587.40
2022-08-11T13:48:01.326Z,597.30
2022-08-11T13:49:39.791Z,546.28
2022-08-11T13:51:34.593Z,580.03
2022-08-11T13:53:06.875Z,558.50
2022-08-11T13:54:41.078Z,561.85
2022-08-11T13:56:12.863Z,642.28
2022-08-11T13:58:18.289Z,556.53
2022-08-11T13:59:51.966Z,570.03
2022-08-11T14:02:22.744Z,597.60
2022-08-11T14:03:26.086Z,533.03
2022-08-11T14:05:20.527Z,574.60
2022-08-11T14:06:55.249Z,634.60
2022-08-11T14:08:37.526Z,484.58
2022-08-11T14:10:15.912Z,506.92
2022-08-11T14:12:21.518Z,501.55
2022-08-11T14:13:58.482Z,466.30
2022-08-11T14:15:34.995Z,505.40
2022-08-11T14:17:08.986Z,458.08
2022-08-11T14:18:46.357Z,487.95
2022-08-11T14:20:39.304Z,445.85
2022-08-11T14:22:15.603Z,433.40
2022-08-11T14:23:59.397Z,428.73
2022-08-11T14:26:00.819Z,362.60
2022-08-11T14:27:39.101Z,345.33
2022-08-11T14:31:01.251Z,336.27
2022-08-11T14:32:33.844Z,309.88
2022-08-11T14:34:10.273Z,352.83
2022-08-11T14:35:44.429Z,334.38
2022-08-11T14:37:23.607Z,310.35
2022-08-11T14:38:55.913Z,318.80
2022-08-11T14:40:46.122Z,312.75
2022-08-11T14:42:38.622Z,314.08
2022-08-11T14:44:29.801Z,309.80
2022-08-11T14:46:20.356Z,311.20
2022-08-11T14:47:54.516Z,326.83
2022-08-11T14:49:28.083Z,420.33
2022-08-11T14:50:59.953Z,331.90
2022-08-11T14:52:35.012Z,416.75
2022-08-11T14:54:26.751Z,321.35
2022-08-11T14:56:18.619Z,353.45
2022-08-11T14:57:54.765Z,293.88
2022-08-11T14:59:28.376Z,301.70
2022-08-11T15:01:02.643Z,289.80
2022-08-11T15:02:56.366Z,310.10
2022-08-11T15:04:35.931Z,294.67
2022-08-11T15:06:08.615Z,274.13
2022-08-11T15:07:41.477Z,316.83
2022-08-11T15:09:13.469Z,311.52
2022-08-11T15:10:46.534Z,299.65
2022-08-11T15:12:32.592Z,330.73
2022-08-11T15:14:08.086Z,310.90
2022-08-11T15:16:03.795Z,294.65
2022-08-11T15:17:43.250Z,264.38
2022-08-11T15:19:16.418Z,296.20
2022-08-11T15:21:06.557Z,309.90
2022-08-11T15:22:56.759Z,356.53
2022-08-11T15:24:30.925Z,280.63
2022-08-11T15:26:10.317Z,282.92
2022-08-11T15:28:04.227Z,298.70
2022-08-11T15:29:56.999Z,306.65
2022-08-11T15:31:30.554Z,234.05
2022-08-11T15:33:26.348Z,376.65
2022-08-11T15:35:18.697Z,295.90
2022-08-11T15:37:14.311Z,413.70
2022-08-11T15:39:00.908Z,346.50
2022-08-11T15:40:56.842Z,572.95
2022-08-11T15:42:48.681Z,258.60
2022-08-11T15:45:01.743Z,352.35
2022-08-11T15:46:40.261Z,305.55
2022-08-11T15:48:16.624Z,335.55
2022-08-11T15:50:11.128Z,370.35
2022-08-11T15:52:02.089Z,306.52
2022-08-11T15:53:39.288Z,385.92
2022-08-11T15:55:11.274Z,402.92
2022-08-11T15:56:49.620Z,360.73
2022-08-11T15:58:41.266Z,339.77
2022-08-11T16:00:32.086Z,381.13
2022-08-11T16:02:27.974Z,453.20
2022-08-11T16:04:13.282Z,356.05
2022-08-11T16:05:52.992Z,366.88
2022-08-11T16:07:29.940Z,372.15
2022-08-11T16:09:07.486Z,417.55
2022-08-11T16:10:51.310Z,374.80
2022-08-11T16:12:28.892Z,398.23
2022-08-11T16:14:23.364Z,356.33
2022-08-11T16:16:15.884Z,411.48
2022-08-11T16:17:53.918Z,454.38
2022-08-11T16:19:28.821Z,438.88
2022-08-11T16:21:01.056Z,419.35
2022-08-11T16:23:00.384Z,422.60
2022-08-11T16:27:09.352Z,403.33
2022-08-11T16:28:23.195Z,410.42
2022-08-11T16:29:56.478Z,429.98
2022-08-11T16:31:30.563Z,445.95
2022-08-11T16:33:48.331Z,445.02
2022-08-11T16:35:40.450Z,486.15
2022-08-11T16:37:30.472Z,535.90
2022-08-11T16:39:03.782Z,474.98
2022-08-11T16:40:36.802Z,443.77
2022-08-11T16:43:04.502Z,448.85
2022-08-11T16:44:41.083Z,481.98
2022-08-11T16:46:34.364Z,523.05
2022-08-11T16:48:35.830Z,482.05
2022-08-11T16:50:01.486Z,532.08
2022-08-11T16:51:33.452Z,540.10
2022-08-11T16:53:05.534Z,515.45
2022-08-11T16:54:38.398Z,464.10
2022-08-11T16:56:12.631Z,470.45
2022-08-11T16:58:04.102Z,494.42
2022-08-11T16:59:38.985Z,478.58
2022-08-11T17:01:12.028Z,484.88
2022-08-11T17:03:09.739Z,491.20
2022-08-11T17:05:10.716Z,470.67
2022-08-11T17:07:03.948Z,517.90
2022-08-11T17:09:13.867Z,463.45
2022-08-11T17:11:09.754Z,472.57
2022-08-11T17:13:00.751Z,509.88
2022-08-11T17:14:39.994Z,528.83
2022-08-11T17:16:15.974Z,476.67
2022-08-11T17:17:47.998Z,486.63
2022-08-11T17:20:42.524Z,514.33
2022-08-11T17:21:26.263Z,482.42
2022-08-11T17:23:17.302Z,543.30
2022-08-11T17:24:51.488Z,466.92
2022-08-11T17:26:28.092Z,479.50
2022-08-11T17:28:00.336Z,549.83
2022-08-11T17:30:00.634Z,524.38
2022-08-11T17:31:50.606Z,602.90
2022-08-11T17:33:42.395Z,485.23
2022-08-11T17:35:31.700Z,496.48
2022-08-11T17:37:04.585Z,477.17
2022-08-11T17:38:37.468Z,525.78
2022-08-11T17:40:12.404Z,491.77
2022-08-11T17:42:11.492Z,504.63
2022-08-11T17:44:04.177Z,473.05
2022-08-11T17:46:01.694Z,477.23
2022-08-11T17:47:52.493Z,471.45
2022-08-11T17:49:25.783Z,542.88
2022-08-11T17:51:00.363Z,527.17
2022-08-11T17:52:50.530Z,497.48
2022-08-11T17:54:42.698Z,483.02
2022-08-11T17:56:36.416Z,478.25
2022-08-11T17:58:27.321Z,479.50
2022-08-11T18:00:00.726Z,470.02
2022-08-11T18:01:35.471Z,488.55
2022-08-11T18:03:27.273Z,521.72
2022-08-11T18:05:00.225Z,480.95
2022-08-11T18:06:34.238Z,495.20
2022-08-11T18:08:27.906Z,490.77
2022-08-11T18:10:20.093Z,520.95
2022-08-11T18:12:13.277Z,502.92
2022-08-11T18:14:05.087Z,492.13
2022-08-11T18:16:01.646Z,496.60
2022-08-11T18:17:52.835Z,500.15
2022-08-11T18:19:43.635Z,502.30
2022-08-11T18:21:37.025Z,495.60
2022-08-11T18:23:45.997Z,508.02
2022-08-11T18:25:45.611Z,495.30
2022-08-11T18:27:39.020Z,496.67
2022-08-11T18:29:30.518Z,530.95
2022-08-11T18:31:35.071Z,509.70
2022-08-11T18:35:39.323Z,494.85
2022-08-11T18:37:34.806Z,499.92
2022-08-11T18:39:29.258Z,509.52
2022-08-11T18:41:20.861Z,508.92
2022-08-11T18:43:14.649Z,510.17
2022-08-11T18:45:07.158Z,535.78
2022-08-11T18:47:01.399Z,504.42
2022-08-11T18:49:00.891Z,504.20
2022-08-11T18:51:28.079Z,520.05
2022-08-11T18:53:04.090Z,509.90
2022-08-11T18:54:57.173Z,512.65
2022-08-11T18:56:49.006Z,511.83
2022-08-11T18:58:49.895Z,497.45
2022-08-11T19:00:44.702Z,484.80
2022-08-11T19:02:48.737Z,498.52
2022-08-11T19:04:41.036Z,472.33
2022-08-11T19:08:31.605Z,457.65
2022-08-11T19:10:23.465Z,476.90
2022-08-11T19:12:15.326Z,485.65
2022-08-11T19:14:06.725Z,494.17
2022-08-11T19:17:49.362Z,450.80
2022-08-11T19:19:45.546Z,470.17
2022-08-11T19:21:39.797Z,499.45
2022-08-11T19:23:33.571Z,468.25
2022-08-11T19:25:26.042Z,492.52
2022-08-11T19:27:17.629Z,474.90
2022-08-11T19:29:09.329Z,484.30
2022-08-11T19:31:19.950Z,464.65
2022-08-11T19:33:11.848Z,465.15
2022-08-11T19:36:53.652Z,440.20
2022-08-11T19:38:44.124Z,465.70
2022-08-11T19:40:35.204Z,461.80
2022-08-11T19:42:27.883Z,457.63
2022-08-11T19:44:20.662Z,462.55
2022-08-11T19:46:14.942Z,467.02
2022-08-11T19:48:31.113Z,466.90
2022-08-11T19:50:21.971Z,456.95
2022-08-11T19:52:15.905Z,472.88
2022-08-11T19:55:57.680Z,446.88
2022-08-11T19:57:48.424Z,465.50
2022-08-11T19:59:38.931Z,459.80
2022-08-11T20:01:29.381Z,469.67
2022-08-11T20:03:23.494Z,455.35
2022-08-11T20:05:13.926Z,462.52
2022-08-11T20:07:04.909Z,456.95
2022-08-11T20:09:00.242Z,453.55
2022-08-11T20:10:52.817Z,448.20
2022-08-11T20:12:45.613Z,442.52
2022-08-11T20:14:38.443Z,467.73
2022-08-11T20:16:30.903Z,454.95
2022-08-11T20:18:24.064Z,451.75
2022-08-11T20:20:18.395Z,440.17
2022-08-11T20:22:09.969Z,442.45
2022-08-11T20:25:55.774Z,417.67
2022-08-11T20:29:48.997Z,434.20
2022-08-11T20:31:42.059Z,425.58
2022-08-11T20:33:34.041Z,432.65
2022-08-11T20:35:26.298Z,433.35
2022-08-11T20:37:19.865Z,434.80
2022-08-11T20:39:11.584Z,440.55
2022-08-11T20:41:02.973Z,441.20
2022-08-11T20:42:54.872Z,427.55
2022-08-11T20:44:47.802Z,436.27
2022-08-11T20:46:39.501Z,429.25
2022-08-11T20:48:33.365Z,436.30
2022-08-11T20:50:26.483Z,444.75
2022-08-11T20:52:20.239Z,444.77
2022-08-11T20:54:12.498Z,423.58
2022-08-11T20:56:06.773Z,447.50
2022-08-11T20:58:04.189Z,426.52
2022-08-11T20:59:57.112Z,429.02
2022-08-11T21:01:52.071Z,420.77
2022-08-11T21:03:52.365Z,423.23
2022-08-11T21:08:07.675Z,415.90
2022-08-11T21:10:09.637Z,420.55
2022-08-11T21:12:01.133Z,423.95
2022-08-11T21:13:57.642Z,412.55
2022-08-11T21:16:01.837Z,414.70
2022-08-11T21:18:00.288Z,410.15
2022-08-11T21:20:00.417Z,413.35
2022-08-11T21:21:54.523Z,396.45
2022-08-11T21:23:49.972Z,406.65
2022-08-11T21:25:42.782Z,400.45
2022-08-11T21:27:35.404Z,408.00
2022-08-11T21:29:27.653Z,391.77
2022-08-11T21:31:19.510Z,401.75
2022-08-11T21:33:11.521Z,334.50
2022-08-11T21:35:02.337Z,313.50
2022-08-11T21:36:52.513Z,315.48
2022-08-11T21:38:44.041Z,359.17
2022-08-11T21:42:27.820Z,348.13
2022-08-11T21:44:19.831Z,306.63
2022-08-11T21:46:11.908Z,328.70
2022-08-11T21:48:03.201Z,315.95
2022-08-11T21:49:55.143Z,329.35
2022-08-11T21:51:45.029Z,320.05
2022-08-11T21:53:36.251Z,363.27
2022-08-11T21:55:27.623Z,365.45
2022-08-11T21:57:18.018Z,318.52
2022-08-11T21:59:09.138Z,329.35
2022-08-11T22:01:00.899Z,330.52
2022-08-11T22:02:53.482Z,334.15
2022-08-11T22:04:44.402Z,348.50
2022-08-11T22:06:35.396Z,355.80
2022-08-11T22:08:27.583Z,375.52
2022-08-11T22:10:41.374Z,361.10
2022-08-11T22:12:35.222Z,393.80
2022-08-11T22:14:26.517Z,386.08
2022-08-11T22:16:17.891Z,364.92
2022-08-11T22:18:08.024Z,354.63
2022-08-11T22:19:59.729Z,368.60
2022-08-11T22:22:01.146Z,371.38
2022-08-11T22:23:57.745Z,365.33
2022-08-11T22:25:54.280Z,347.60
2022-08-11T22:27:46.704Z,469.02
2022-08-11T22:29:38.085Z,359.27
2022-08-11T22:31:42.599Z,356.55
2022-08-11T22:33:33.747Z,365.88
2022-08-11T22:35:28.685Z,373.38
2022-08-11T22:37:27.254Z,374.52
2022-08-11T22:39:19.668Z,377.83
2022-08-11T22:41:09.993Z,386.50
2022-08-11T22:43:02.189Z,378.70
2022-08-11T22:44:52.446Z,400.27
2022-08-11T22:46:44.615Z,528.35
2022-08-11T22:48:37.383Z,567.13
2022-08-11T22:50:30.650Z,562.58
2022-08-11T22:52:21.382Z,594.60
2022-08-11T22:54:14.044Z,614.30
2022-08-11T22:56:05.159Z,603.72
2022-08-11T22:58:01.081Z,622.50
2022-08-11T22:59:53.690Z,628.35
2022-08-11T23:01:56.270Z,623.75
2022-08-11T23:03:49.373Z,687.47
2022-08-11T23:05:40.113Z,669.20
2022-08-11T23:07:50.978Z,653.05
2022-08-11T23:09:42.806Z,673.13
2022-08-11T23:12:05.881Z,642.00
2022-08-11T23:13:45.206Z,631.97
2022-08-11T23:15:35.478Z,642.10
2022-08-11T23:17:32.045Z,646.10
2022-08-11T23:20:09.250Z,650.58
2022-08-11T23:23:26.518Z,669.92
2022-08-11T23:25:17.881Z,611.95
2022-08-11T23:27:08.951Z,592.70
2022-08-11T23:29:04.991Z,694.47
2022-08-11T23:30:57.001Z,631.03
2022-08-11T23:32:49.514Z,639.75
2022-08-11T23:35:03.392Z,744.58